»·PEaware :: AAL1048 KDCA-KBUF

AAL1048 :: KDCA-KBUF

FLIGHT INFORMATION

Flight Status: Arrived
Operator:
American Airlines
More flights by this operator :: More flights under this callsign
Pilot: Adam A. (5112)
Aircraft: MCDONNELL-DOUGLAS MD-88
(MD88)
More flights by this aircraft type
Origin: KDCA Ronald Reagan Washington Natl
United States
Destination: KBUF Buffalo Niagara Intl
United States
More flights between these airports :: More routes between these airports
Route: HORTO2 JERES J220 SFK
File this flight plan on PilotEdge
Remarks:
Altitude:
(Current/Filed)
26,000ft
Speed:
(Current/Filed)
440kts
Departed: 13-Dec-15 03:04 PM
Arrived: 13-Dec-15 03:56 PM
Distance/Time
Traveled:
256nm/0:52
Distance/Time
To Go:
Arrived

Flight Plot

Page will automatically refresh every two minutes.


Map Options




Map Legend


Flown Route
Filed Route
Departure Airport
Arrival Airport
Navaid (VOR, NDB)
Fix

Horizontal Profiles

Position Reports

Time Latitude Longitude Heading Altitude Ground
Speed
13-Dec-15 14:48 38.852610 -77.041697 165 21ft 0kts
13-Dec-15 14:49 38.852610 -77.041697 165 21ft 0kts
13-Dec-15 14:50 38.852610 -77.041697 165 21ft 0kts
13-Dec-15 14:51 38.852610 -77.041697 165 21ft 0kts
13-Dec-15 14:52 38.852610 -77.041697 165 21ft 0kts
13-Dec-15 14:53 38.852610 -77.041697 165 21ft 0kts
13-Dec-15 14:54 38.852610 -77.041697 165 21ft 0kts
13-Dec-15 14:55 38.852610 -77.041697 165 21ft 0kts
13-Dec-15 14:56 38.852985 -77.041908 95 21ft 4kts
13-Dec-15 14:57 38.851527 -77.039762 176 21ft 11kts
13-Dec-15 14:58 38.847564 -77.039286 149 21ft 15kts
13-Dec-15 14:59 38.843732 -77.038395 175 21ft 16kts
13-Dec-15 15:00 38.843344 -77.036885 349 21ft 17kts
13-Dec-15 15:01 38.862526 -77.038655 356 129ft 178kts
13-Dec-15 15:02 38.919655 -77.025178 14 2197ft 256kts
13-Dec-15 15:03 38.961904 -77.082784 284 4833ft 281kts
13-Dec-15 15:04 38.987426 -77.173545 285 7783ft 286kts
13-Dec-15 15:05 38.991560 -77.272139 270 10149ft 302kts
13-Dec-15 15:06 39.036948 -77.368545 313 12157ft 344kts
13-Dec-15 15:07 39.109476 -77.451341 327 14563ft 362kts
13-Dec-15 15:08 39.213889 -77.461965 355 16668ft 389kts
13-Dec-15 15:09 39.323428 -77.460290 355 18638ft 400kts
13-Dec-15 15:10 39.436273 -77.458437 354 20467ft 411kts
13-Dec-15 15:11 39.553743 -77.456501 354 21857ft 430kts
13-Dec-15 15:12 39.661998 -77.454553 350 25920ft 358kts
13-Dec-15 15:13 39.767397 -77.453070 352 26147ft 408kts
13-Dec-15 15:14 39.888409 -77.451038 353 26144ft 463kts
13-Dec-15 15:15 40.022254 -77.448739 353 26139ft 492kts
13-Dec-15 15:16 40.159881 -77.446362 353 26137ft 497kts
13-Dec-15 15:17 40.292601 -77.444126 353 26147ft 496kts
13-Dec-15 15:18 40.430639 -77.441780 353 26152ft 497kts
13-Dec-15 15:19 40.567655 -77.439448 353 26150ft 498kts
13-Dec-15 15:20 40.704749 -77.437095 353 26151ft 498kts
13-Dec-15 15:21 40.840223 -77.434663 353 26152ft 498kts
13-Dec-15 15:22 40.976921 -77.432340 353 26153ft 498kts
13-Dec-15 15:23 41.113238 -77.430017 353 26149ft 498kts
13-Dec-15 15:24 41.249371 -77.427664 353 26148ft 498kts
13-Dec-15 15:25 41.384963 -77.425303 353 26149ft 497kts
13-Dec-15 15:25 41.498525 -77.423333 353 26148ft 498kts
13-Dec-15 15:26 41.631976 -77.421005 353 26139ft 499kts
13-Dec-15 15:27 41.749636 -77.472034 317 26138ft 460kts
13-Dec-15 15:28 41.852453 -77.568813 317 26109ft 460kts
13-Dec-15 15:29 41.945757 -77.657636 317 25087ft 408kts
13-Dec-15 15:30 42.032460 -77.740524 317 24054ft 408kts
13-Dec-15 15:31 42.117300 -77.821873 318 22605ft 401kts
13-Dec-15 15:32 42.198138 -77.899643 318 20959ft 394kts
13-Dec-15 15:33 42.277936 -77.976658 318 19189ft 387kts
13-Dec-15 15:34 42.354097 -78.050392 319 17371ft 379kts
13-Dec-15 15:35 42.429250 -78.123096 319 15543ft 371kts
13-Dec-15 15:36 42.504488 -78.196099 319 13715ft 358kts
13-Dec-15 15:37 42.561062 -78.284241 290 11875ft 328kts
13-Dec-15 15:38 42.593216 -78.384959 290 10625ft 299kts
13-Dec-15 15:40 42.631226 -78.472291 294 8950ft 291kts
13-Dec-15 15:41 42.649328 -78.568587 276 7397ft 276kts
13-Dec-15 15:42 42.660466 -78.661826 281 6338ft 263kts
13-Dec-15 15:43 42.703152 -78.735617 310 5578ft 268kts
13-Dec-15 15:44 42.729659 -78.822186 277 4937ft 260kts
13-Dec-15 15:45 42.752466 -78.910945 329 4658ft 272kts
13-Dec-15 15:46 42.823978 -78.918986 31 4381ft 265kts
13-Dec-15 15:47 42.866620 -78.848972 57 3928ft 230kts
13-Dec-15 15:48 42.897548 -78.787960 56 2926ft 183kts
13-Dec-15 15:49 42.930548 -78.742089 45 1349ft 175kts
13-Dec-15 15:50 42.960309 -78.754031 244 1380ft 174kts
13-Dec-15 15:51 42.926130 -78.792124 179 1365ft 143kts
13-Dec-15 15:52 42.917601 -78.756141 35 945ft 158kts
13-Dec-15 15:53 42.940919 -78.729131 46 730ft 0kts
13-Dec-15 15:54 42.941562 -78.726460 184 730ft 5kts
13-Dec-15 15:55 42.937498 -78.731412 212 730ft 20kts
13-Dec-15 15:56 42.936242 -78.731086 101 730ft 8kts
13-Dec-15 15:57 42.935611 -78.729241 112 730ft 0kts
13-Dec-15 15:58 42.935275 -78.728089 106 730ft 19kts
13-Dec-15 15:59 42.934794 -78.719233 115 730ft 84kts
13-Dec-15 16:00 42.933053 -78.711180 79 719ft 0kts
13-Dec-15 16:01 42.933053 -78.711180 79 719ft 0kts
13-Dec-15 16:02 42.933053 -78.711180 79 719ft 0kts
13-Dec-15 16:03 42.933053 -78.711180 79 719ft 0kts
13-Dec-15 16:04 42.933053 -78.711180 79 719ft 0kts
13-Dec-15 16:05 42.933053 -78.711180 79 719ft 0kts
13-Dec-15 16:06 42.933053 -78.711180 79 719ft 0kts
13-Dec-15 16:07 42.933053 -78.711180 79 719ft 0kts

Navigation Log

Ident Type
Flight plan parsing failed, navigation log unavailable